Time;durP1;ratioP1;P1;durP2;ratioP2;P2;SDS_P1;SDS_P2;PMS_P1;PMS_P2;Temp;Humidity;BMP_temperature;BMP_pressure;BME280_temperature;BME280_humidity;BME280_pressure;Samples;Min_cycle;Max_cycle;Signal;HPM_P1;HPM_P2
2021/07/08 00:01:52;;;;;;;3.30;1.33;;;18.40;29.50;;;;;;5103025;27;20126;-70
2021/07/08 00:04:43;;;;;;;2.72;1.60;;;18.40;29.70;;;;;;5103259;27;20043;-70
2021/07/08 00:07:31;;;;;;;3.50;1.58;;;18.40;27.90;;;;;;5105900;27;20040;-70
2021/07/08 00:10:28;;;;;;;3.78;2.60;;;18.40;28.70;;;;;;5104904;27;20182;-71
2021/07/08 00:13:17;;;;;;;4.78;1.60;;;18.40;29.20;;;;;;5090237;27;20411;-71
2021/07/08 00:16:06;;;;;;;1.50;1.30;;;18.30;30.70;;;;;;5104635;27;20588;-71
2021/07/08 00:18:54;;;;;;;3.00;1.50;;;18.20;32.00;;;;;;5102899;27;20055;-72
2021/07/08 00:21:44;;;;;;;4.68;2.10;;;18.20;33.40;;;;;;5104471;27;20051;-70
2021/07/08 00:24:32;;;;;;;2.42;1.80;;;18.20;33.10;;;;;;5108356;27;20050;-70
2021/07/08 00:27:21;;;;;;;2.00;1.67;;;18.20;34.60;;;;;;5109133;27;20055;-70
2021/07/08 00:30:11;;;;;;;3.03;1.40;;;18.10;35.20;;;;;;5099777;27;20503;-70
2021/07/08 00:32:59;;;;;;;2.88;1.73;;;18.00;35.50;;;;;;5108587;27;20058;-71
2021/07/08 00:35:49;;;;;;;3.70;1.98;;;18.10;34.70;;;;;;5104383;27;20047;-70
2021/07/08 00:38:42;;;;;;;3.00;1.67;;;18.20;35.70;;;;;;5107578;27;20063;-72
2021/07/08 00:41:30;;;;;;;4.03;1.98;;;18.00;35.60;;;;;;5102550;27;20459;-70
2021/07/08 00:44:19;;;;;;;2.40;1.80;;;18.10;35.30;;;;;;5102356;27;20051;-71
2021/07/08 00:47:07;;;;;;;2.35;1.75;;;18.30;33.30;;;;;;5111861;27;20374;-71
2021/07/08 00:49:56;;;;;;;2.88;1.85;;;18.40;31.50;;;;;;5105586;27;20062;-69
2021/07/08 00:52:44;;;;;;;2.50;1.90;;;18.30;31.90;;;;;;5107316;27;20051;-70
2021/07/08 00:55:35;;;;;;;2.40;1.63;;;18.30;32.40;;;;;;5101331;27;20049;-71
2021/07/08 00:58:24;;;;;;;2.70;1.60;;;18.30;32.10;;;;;;5085781;27;20047;-70
2021/07/08 01:01:12;;;;;;;2.83;1.52;;;18.40;31.90;;;;;;5086926;28;20124;-70
2021/07/08 01:04:03;;;;;;;3.08;1.80;;;18.30;31.50;;;;;;5076706;28;20048;-70
2021/07/08 01:06:54;;;;;;;3.53;1.90;;;18.30;32.50;;;;;;5069909;28;20044;-68
2021/07/08 01:09:42;;;;;;;2.63;1.88;;;18.20;32.80;;;;;;5061280;28;20177;-70
2021/07/08 01:12:32;;;;;;;3.20;1.73;;;18.50;31.50;;;;;;5081317;28;20047;-71
2021/07/08 01:15:29;;;;;;;3.33;1.90;;;18.40;30.80;;;;;;5075731;28;20052;-71
2021/07/08 01:18:18;;;;;;;2.40;1.90;;;18.20;31.90;;;;;;5080503;28;20051;-71
2021/07/08 01:21:22;;;;;;;4.18;2.08;;;18.10;32.90;;;;;;5072175;28;20123;-71
2021/07/08 01:24:10;;;;;;;4.13;2.05;;;18.10;34.50;;;;;;5080552;28;20051;-72
2021/07/08 01:26:59;;;;;;;2.50;2.03;;;18.10;34.10;;;;;;5082459;28;20055;-69
2021/07/08 01:29:50;;;;;;;4.00;1.80;;;18.10;33.80;;;;;;5079935;28;20080;-70
2021/07/08 01:32:39;;;;;;;2.90;1.88;;;18.00;34.30;;;;;;5082478;28;20040;-70
2021/07/08 01:35:28;;;;;;;1.90;1.67;;;17.90;36.90;;;;;;5083128;28;20055;-70
2021/07/08 01:38:17;;;;;;;2.60;2.05;;;17.70;39.30;;;;;;5084398;28;20071;-71
2021/07/08 01:41:06;;;;;;;3.50;1.90;;;17.70;41.40;;;;;;5078507;28;20093;-69
2021/07/08 01:43:55;;;;;;;5.15;1.88;;;17.60;42.00;;;;;;5081597;28;20455;-70
2021/07/08 01:46:44;;;;;;;2.80;1.63;;;17.90;39.10;;;;;;5070786;28;20598;-70
2021/07/08 01:49:33;;;;;;;1.92;1.50;;;17.90;35.40;;;;;;5070286;28;20044;-71
2021/07/08 01:52:21;;;;;;;4.22;1.67;;;18.00;35.60;;;;;;5068948;28;20094;-70
2021/07/08 01:55:12;;;;;;;2.95;1.75;;;18.00;36.10;;;;;;5082850;28;20054;-70
2021/07/08 01:58:02;;;;;;;1.85;1.67;;;17.90;37.70;;;;;;5084232;28;20109;-70
2021/07/08 02:00:51;;;;;;;2.90;1.83;;;17.90;36.40;;;;;;5079925;28;20040;-70
2021/07/08 02:03:39;;;;;;;3.17;2.00;;;17.90;36.00;;;;;;5083988;28;20132;-70
2021/07/08 02:06:28;;;;;;;1.83;1.52;;;17.90;35.50;;;;;;5083847;28;20101;-70
2021/07/08 02:09:16;;;;;;;1.95;1.85;;;17.90;36.10;;;;;;5083445;28;20512;-70
2021/07/08 02:12:08;;;;;;;3.63;2.50;;;17.90;37.60;;;;;;5086657;28;20046;-70
2021/07/08 02:14:57;;;;;;;5.47;2.67;;;17.90;38.50;;;;;;5080164;28;20082;-70
2021/07/08 02:17:45;;;;;;;8.07;2.88;;;17.80;40.00;;;;;;5084335;28;20060;-69
2021/07/08 02:20:34;;;;;;;7.95;2.78;;;17.90;39.80;;;;;;5082784;28;20234;-70
2021/07/08 02:23:22;;;;;;;4.93;2.65;;;17.80;40.20;;;;;;5095704;28;20127;-70
2021/07/08 02:26:11;;;;;;;5.78;2.35;;;17.60;42.40;;;;;;5082563;28;20055;-70
2021/07/08 02:29:00;;;;;;;4.13;2.30;;;17.60;42.90;;;;;;5081224;28;20052;-70
2021/07/08 02:31:49;;;;;;;3.63;2.33;;;17.60;43.70;;;;;;5081978;28;20052;-70
2021/07/08 02:34:39;;;;;;;3.38;2.70;;;17.60;43.80;;;;;;5079575;28;20044;-70
2021/07/08 02:37:27;;;;;;;4.28;2.70;;;17.60;43.80;;;;;;5080952;28;20057;-71
2021/07/08 02:40:17;;;;;;;4.85;2.88;;;17.60;44.80;;;;;;5075878;28;20051;-71
2021/07/08 02:43:07;;;;;;;8.85;2.95;;;17.50;46.10;;;;;;5086475;28;20511;-69
2021/07/08 02:45:57;;;;;;;3.97;2.47;;;17.40;47.10;;;;;;5079121;28;20048;-69
2021/07/08 02:48:45;;;;;;;5.15;2.67;;;17.50;47.90;;;;;;5071375;28;20055;-69
2021/07/08 02:51:34;;;;;;;3.00;2.45;;;17.40;48.20;;;;;;5080964;28;20051;-70
2021/07/08 02:54:23;;;;;;;4.53;2.95;;;17.20;50.70;;;;;;5078254;28;20044;-70
2021/07/08 02:57:11;;;;;;;4.40;2.60;;;17.20;51.80;;;;;;5083490;28;20044;-70
2021/07/08 03:00:00;;;;;;;4.90;2.78;;;17.20;53.10;;;;;;5077726;28;20048;-70
2021/07/08 03:02:50;;;;;;;5.82;2.75;;;17.20;53.60;;;;;;5084485;28;20055;-70
2021/07/08 03:05:39;;;;;;;7.22;2.80;;;17.30;53.60;;;;;;5085067;28;20067;-69
2021/07/08 03:08:27;;;;;;;3.97;2.97;;;17.30;52.00;;;;;;5074923;28;20063;-68
2021/07/08 03:11:16;;;;;;;3.65;2.78;;;17.40;52.00;;;;;;5080763;28;20530;-70
2021/07/08 03:14:04;;;;;;;3.50;2.80;;;17.40;51.50;;;;;;5082477;28;20491;-68
2021/07/08 03:16:53;;;;;;;4.40;2.95;;;17.40;51.80;;;;;;5082373;28;20051;-68
2021/07/08 03:19:43;;;;;;;5.53;2.60;;;17.30;51.90;;;;;;5078218;28;20044;-70
2021/07/08 03:22:31;;;;;;;6.97;2.80;;;17.30;52.70;;;;;;5083610;28;20059;-68
2021/07/08 03:25:21;;;;;;;6.70;3.00;;;17.30;52.50;;;;;;5084737;28;20509;-70
2021/07/08 03:28:09;;;;;;;4.00;2.88;;;17.30;52.30;;;;;;5085203;28;20060;-70
2021/07/08 03:30:58;;;;;;;5.68;2.47;;;17.30;53.10;;;;;;5089082;28;20139;-70
2021/07/08 03:33:46;;;;;;;4.30;2.80;;;17.20;53.20;;;;;;5087832;28;20040;-68
2021/07/08 03:36:36;;;;;;;2.88;2.60;;;17.20;53.70;;;;;;5088053;28;20048;-69
2021/07/08 03:39:24;;;;;;;4.35;2.55;;;17.20;53.60;;;;;;5082068;28;20044;-69
2021/07/08 03:42:12;;;;;;;6.05;2.60;;;17.10;54.60;;;;;;5080450;28;20041;-69
2021/07/08 03:45:01;;;;;;;5.65;3.00;;;17.10;54.70;;;;;;5085687;28;20171;-69
2021/07/08 03:47:49;;;;;;;7.22;3.00;;;17.20;53.90;;;;;;5071967;28;20135;-69
2021/07/08 03:50:37;;;;;;;7.05;3.03;;;17.20;53.70;;;;;;5067428;28;20047;-71
2021/07/08 03:53:27;;;;;;;5.13;2.50;;;17.20;54.20;;;;;;5085591;28;20058;-69
2021/07/08 03:56:15;;;;;;;6.50;2.50;;;17.30;54.10;;;;;;5089306;28;20063;-70
2021/07/08 03:59:09;;;;;;;4.63;2.88;;;17.30;54.30;;;;;;5086010;28;20048;-68
2021/07/08 04:01:57;;;;;;;5.18;3.33;;;17.40;53.40;;;;;;5085287;28;20036;-69
2021/07/08 04:04:46;;;;;;;3.65;2.75;;;17.40;53.20;;;;;;5084407;28;20122;-68
2021/07/08 04:07:36;;;;;;;5.55;2.95;;;17.50;50.30;;;;;;5088501;28;20043;-69
2021/07/08 04:10:26;;;;;;;7.97;2.85;;;17.60;49.50;;;;;;5080116;28;20041;-69
2021/07/08 04:13:16;;;;;;;3.28;2.75;;;17.60;48.30;;;;;;5098104;28;20407;-69
2021/07/08 04:16:05;;;;;;;6.20;2.35;;;17.70;47.10;;;;;;5075422;28;20046;-69
2021/07/08 04:18:54;;;;;;;3.42;2.92;;;17.80;44.80;;;;;;5083704;28;20079;-69
2021/07/08 04:21:42;;;;;;;4.07;2.80;;;17.70;43.90;;;;;;5084217;28;20063;-70
2021/07/08 04:24:30;;;;;;;5.55;3.10;;;17.70;45.40;;;;;;5083922;28;20059;-69
2021/07/08 04:27:20;;;;;;;4.10;2.95;;;17.80;43.90;;;;;;5079971;28;20052;-69
2021/07/08 04:30:11;;;;;;;6.38;2.70;;;18.00;42.60;;;;;;5076879;28;20054;-70
2021/07/08 04:32:59;;;;;;;4.07;2.70;;;18.00;43.20;;;;;;5079389;28;20044;-69
2021/07/08 04:35:48;;;;;;;6.90;3.00;;;18.00;41.50;;;;;;5090717;28;20072;-70
2021/07/08 04:38:36;;;;;;;4.55;3.05;;;17.90;42.40;;;;;;5083242;28;20067;-70
2021/07/08 04:41:24;;;;;;;4.53;3.25;;;17.90;44.10;;;;;;5084287;28;20283;-69
2021/07/08 04:44:14;;;;;;;5.40;3.28;;;17.90;44.10;;;;;;5067650;28;20431;-70
2021/07/08 04:47:03;;;;;;;5.95;3.72;;;18.00;44.10;;;;;;5084910;28;20048;-69
2021/07/08 04:49:52;;;;;;;7.35;3.70;;;17.80;46.20;;;;;;5082672;28;20059;-68
2021/07/08 04:52:40;;;;;;;6.97;3.92;;;17.70;47.60;;;;;;5085377;28;20067;-69
2021/07/08 04:55:28;;;;;;;6.38;3.33;;;17.60;48.60;;;;;;5086558;28;20571;-69
2021/07/08 04:58:17;;;;;;;4.53;3.15;;;17.60;49.10;;;;;;5087493;28;20067;-70
2021/07/08 05:01:06;;;;;;;4.35;2.67;;;17.80;48.70;;;;;;5077350;28;20055;-69
2021/07/08 05:03:58;;;;;;;5.85;3.42;;;18.00;46.80;;;;;;5087485;28;20058;-69
2021/07/08 05:06:46;;;;;;;5.15;3.33;;;17.90;45.70;;;;;;5073109;28;20047;-70
2021/07/08 05:09:34;;;;;;;5.40;3.58;;;17.80;47.00;;;;;;5066784;28;20045;-69
2021/07/08 05:12:23;;;;;;;5.78;3.65;;;17.80;47.20;;;;;;5093826;27;20291;-69
2021/07/08 05:15:14;;;;;;;12.38;3.75;;;17.80;46.40;;;;;;5108704;27;20051;-69
2021/07/08 05:18:05;;;;;;;4.72;3.47;;;17.90;46.80;;;;;;5111328;27;20415;-69
2021/07/08 05:20:53;;;;;;;3.80;3.40;;;18.00;45.40;;;;;;5106255;27;20410;-70
2021/07/08 05:23:42;;;;;;;4.32;3.92;;;18.00;45.10;;;;;;5109724;27;20048;-69
2021/07/08 05:26:30;;;;;;;5.70;3.78;;;18.00;45.00;;;;;;5113447;27;20133;-69
2021/07/08 05:29:19;;;;;;;5.60;4.10;;;17.80;45.80;;;;;;5092969;27;20043;-70
2021/07/08 05:32:08;;;;;;;8.25;4.20;;;17.90;46.80;;;;;;5107105;27;20054;-69
2021/07/08 05:34:58;;;;;;;10.48;4.13;;;17.90;45.30;;;;;;5113185;27;20036;-70
2021/07/08 05:37:48;;;;;;;7.65;4.43;;;17.90;45.00;;;;;;5110611;27;20055;-70
2021/07/08 05:40:37;;;;;;;5.95;3.90;;;18.00;44.10;;;;;;5108024;27;20434;-69
2021/07/08 05:43:25;;;;;;;4.88;3.92;;;18.10;43.60;;;;;;5110900;27;20048;-70
2021/07/08 05:46:13;;;;;;;4.22;3.63;;;18.30;40.50;;;;;;5107360;27;20047;-68
2021/07/08 05:49:02;;;;;;;4.80;3.30;;;18.40;40.50;;;;;;5105578;27;20169;-69
2021/07/08 05:51:51;;;;;;;6.38;3.20;;;18.50;40.30;;;;;;5106031;27;20047;-70
2021/07/08 05:54:40;;;;;;;5.03;3.75;;;18.50;38.80;;;;;;5106431;27;20054;-70
2021/07/08 05:57:28;;;;;;;6.65;3.03;;;18.60;36.10;;;;;;5108022;27;20524;-69
2021/07/08 06:00:19;;;;;;;5.90;3.90;;;18.60;37.20;;;;;;5105331;27;20509;-70
2021/07/08 06:03:07;;;;;;;5.20;4.05;;;18.60;37.70;;;;;;5090321;27;20179;-69
2021/07/08 06:05:56;;;;;;;10.02;4.30;;;18.50;39.30;;;;;;5108781;27;20043;-70
2021/07/08 06:08:47;;;;;;;5.55;4.07;;;18.40;41.00;;;;;;5107175;27;20061;-68
2021/07/08 06:11:35;;;;;;;7.55;4.72;;;18.30;41.80;;;;;;5114945;27;20047;-69
2021/07/08 06:14:24;;;;;;;11.57;4.72;;;18.40;42.30;;;;;;5109624;27;20036;-70
2021/07/08 06:17:12;;;;;;;8.50;4.50;;;18.50;42.70;;;;;;5109199;27;20047;-71
2021/07/08 06:20:01;;;;;;;10.60;4.40;;;18.60;42.90;;;;;;5109273;27;20047;-69
2021/07/08 06:22:50;;;;;;;8.75;4.90;;;18.60;40.40;;;;;;5110952;27;20307;-69
2021/07/08 06:25:40;;;;;;;7.53;5.63;;;18.70;43.50;;;;;;5106339;27;20196;-69
2021/07/08 06:28:29;;;;;;;8.60;4.57;;;18.70;44.80;;;;;;5108493;27;20498;-69
2021/07/08 06:31:17;;;;;;;10.68;4.65;;;18.90;41.90;;;;;;5105747;27;20076;-69
2021/07/08 06:34:07;;;;;;;5.90;5.22;;;19.00;43.10;;;;;;5107338;27;20044;-70
2021/07/08 06:36:55;;;;;;;8.27;5.35;;;19.00;39.60;;;;;;5112267;27;20508;-70
2021/07/08 06:39:46;;;;;;;8.25;5.03;;;18.90;41.80;;;;;;5106290;27;20066;-69
2021/07/08 06:42:36;;;;;;;6.97;5.00;;;18.90;42.20;;;;;;5109478;27;20421;-69
2021/07/08 06:45:25;;;;;;;9.63;5.03;;;18.90;41.00;;;;;;5105426;27;20035;-70
2021/07/08 06:48:15;;;;;;;8.52;4.15;;;19.00;40.90;;;;;;5109829;28;20077;-70
2021/07/08 06:51:03;;;;;;;10.25;4.57;;;18.90;37.00;;;;;;5110513;28;20043;-69
2021/07/08 06:53:53;;;;;;;7.95;4.47;;;18.90;37.50;;;;;;5106187;28;20051;-69
2021/07/08 06:56:42;;;;;;;11.35;4.50;;;18.90;37.30;;;;;;5109153;28;20071;-70
2021/07/08 06:59:32;;;;;;;7.68;4.57;;;18.80;38.30;;;;;;5102181;28;20051;-70
2021/07/08 07:02:20;;;;;;;6.78;4.35;;;18.60;39.90;;;;;;5112954;27;20126;-70
2021/07/08 07:05:09;;;;;;;8.23;4.30;;;18.70;37.70;;;;;;5110532;27;20084;-69
2021/07/08 07:07:58;;;;;;;6.97;4.43;;;18.80;36.30;;;;;;5110463;27;20405;-70
2021/07/08 07:10:47;;;;;;;11.38;4.38;;;18.90;39.20;;;;;;5092942;27;20123;-71
2021/07/08 07:13:35;;;;;;;6.13;4.28;;;18.70;39.50;;;;;;5111374;27;20056;-70
2021/07/08 07:16:25;;;;;;;4.50;3.92;;;19.00;40.00;;;;;;5107965;27;20044;-69
2021/07/08 07:19:14;;;;;;;3.25;2.92;;;19.00;35.30;;;;;;5109104;27;20531;-69
2021/07/08 07:22:03;;;;;;;7.90;4.00;;;19.10;36.30;;;;;;5109668;27;20051;-70
2021/07/08 07:24:52;;;;;;;5.78;4.20;;;19.20;33.10;;;;;;5111705;27;20129;-70
2021/07/08 07:27:41;;;;;;;6.05;4.00;;;19.30;32.80;;;;;;5112986;27;20127;-69
2021/07/08 07:30:29;;;;;;;7.60;3.72;;;19.10;37.00;;;;;;5103721;27;20050;-69
2021/07/08 07:33:19;;;;;;;8.65;6.88;;;19.20;36.60;;;;;;5109579;27;20138;-69
2021/07/08 07:36:08;;;;;;;9.23;5.40;;;19.20;33.30;;;;;;5112084;27;20095;-69
2021/07/08 07:38:56;;;;;;;7.95;5.07;;;19.40;35.50;;;;;;5110020;27;20395;-70
2021/07/08 07:41:45;;;;;;;6.30;4.32;;;19.50;36.00;;;;;;5108596;27;20161;-70
2021/07/08 07:44:33;;;;;;;9.40;5.20;;;19.50;34.60;;;;;;5110691;27;20181;-70
2021/07/08 07:47:21;;;;;;;6.18;4.80;;;19.40;32.10;;;;;;5109533;27;20051;-69
2021/07/08 07:50:12;;;;;;;7.00;4.88;;;19.20;34.10;;;;;;5110808;27;20074;-70
2021/07/08 07:53:01;;;;;;;8.70;3.65;;;19.30;35.60;;;;;;5109924;27;20044;-70
2021/07/08 07:55:50;;;;;;;6.25;4.13;;;19.80;30.80;;;;;;5114766;27;20028;-71
2021/07/08 07:58:39;;;;;;;6.32;4.10;;;19.80;28.80;;;;;;5108416;27;20485;-69
2021/07/08 08:01:28;;;;;;;6.35;4.13;;;20.00;28.50;;;;;;5109756;27;20062;-69
2021/07/08 08:04:17;;;;;;;6.93;4.63;;;20.00;26.90;;;;;;5108692;27;20044;-69
2021/07/08 08:10:13;;;;;;;9.93;5.13;;;19.80;28.90;;;;;;5110049;27;20048;-69
2021/07/08 08:13:01;;;;;;;6.65;5.30;;;19.70;29.10;;;;;;5107646;27;20491;-69
2021/07/08 08:15:51;;;;;;;10.30;5.40;;;19.60;29.40;;;;;;5106222;27;20068;-69
2021/07/08 08:18:40;;;;;;;6.55;5.55;;;19.60;30.40;;;;;;5108692;27;20062;-69
2021/07/08 08:21:33;;;;;;;7.53;5.25;;;19.90;28.80;;;;;;5114829;27;20528;-70
2021/07/08 08:24:23;;;;;;;6.72;4.80;;;20.10;26.10;;;;;;5108040;27;20043;-69
2021/07/08 08:27:11;;;;;;;6.22;4.93;;;20.10;26.60;;;;;;5115856;27;20169;-70
2021/07/08 08:30:00;;;;;;;8.80;4.38;;;20.10;25.50;;;;;;5110599;27;20296;-71
2021/07/08 08:32:48;;;;;;;7.10;5.10;;;20.30;24.60;;;;;;5111241;27;20588;-70
2021/07/08 08:35:38;;;;;;;6.18;5.18;;;20.30;23.00;;;;;;5098905;27;20057;-70
2021/07/08 08:38:27;;;;;;;7.13;4.72;;;20.30;22.10;;;;;;5108970;27;20438;-69
2021/07/08 08:41:17;;;;;;;5.50;4.53;;;20.60;23.40;;;;;;5109970;27;20456;-69
2021/07/08 08:44:06;;;;;;;5.47;4.13;;;20.90;20.50;;;;;;5109786;27;20051;-69
2021/07/08 08:46:55;;;;;;;6.13;4.90;;;21.10;22.60;;;;;;5111871;27;20058;-71
2021/07/08 08:49:44;;;;;;;7.03;5.30;;;21.00;22.60;;;;;;5107924;27;20136;-69
2021/07/08 08:52:32;;;;;;;9.35;5.05;;;21.30;18.60;;;;;;5108121;27;20056;-70
2021/07/08 08:55:21;;;;;;;7.22;5.00;;;20.70;22.40;;;;;;5108348;27;20127;-69
2021/07/08 08:58:12;;;;;;;4.45;4.00;;;20.90;21.30;;;;;;5107203;27;20166;-69
2021/07/08 09:01:03;;;;;;;8.50;4.90;;;21.30;18.30;;;;;;5107213;27;20054;-69
2021/07/08 09:03:51;;;;;;;9.07;4.70;;;20.60;18.70;;;;;;5097366;27;20050;-71
2021/07/08 09:06:40;;;;;;;5.28;3.72;;;20.80;18.40;;;;;;5107404;27;20047;-69
2021/07/08 09:09:32;;;;;;;6.30;4.40;;;20.90;14.80;;;;;;5105637;27;20117;-70
2021/07/08 09:12:23;;;;;;;6.18;3.92;;;21.40;15.60;;;;;;5113005;27;20515;-69
2021/07/08 09:15:20;;;;;;;5.22;4.53;;;21.30;13.90;;;;;;5107072;27;20044;-68
2021/07/08 09:18:12;;;;;;;4.55;4.00;;;20.90;16.30;;;;;;5108664;27;20052;-69
2021/07/08 09:21:15;;;;;;;4.13;3.72;;;21.60;13.10;;;;;;5109829;27;20039;-70
2021/07/08 09:24:12;;;;;;;5.68;3.83;;;21.20;14.90;;;;;;5111035;27;20051;-69
2021/07/08 09:27:04;;;;;;;10.70;4.88;;;21.60;11.10;;;;;;5109444;27;20092;-69
2021/07/08 09:29:53;;;;;;;7.03;3.47;;;21.60;11.30;;;;;;5100890;27;20063;-70
2021/07/08 09:32:42;;;;;;;5.55;3.70;;;21.30;12.50;;;;;;5113201;27;20069;-70
2021/07/08 09:35:35;;;;;;;4.15;3.40;;;21.30;12.00;;;;;;5109651;27;20039;-69
2021/07/08 09:38:25;;;;;;;6.32;4.00;;;21.30;13.70;;;;;;5092943;27;20039;-69
2021/07/08 09:41:18;;;;;;;4.80;3.25;;;21.50;12.40;;;;;;5093130;27;20130;-69
2021/07/08 09:44:19;;;;;;;4.18;3.67;;;21.50;13.00;;;;;;5106285;27;20054;-69
2021/07/08 09:47:20;;;;;;;5.40;4.20;;;21.30;13.80;;;;;;5105726;27;20074;-69
2021/07/08 09:50:13;;;;;;;7.03;4.07;;;20.90;12.50;;;;;;5109387;27;20047;-69
2021/07/08 09:53:04;;;;;;;5.07;4.32;;;21.20;13.60;;;;;;5112767;27;20067;-71
2021/07/08 09:56:00;;;;;;;5.75;4.25;;;20.80;14.10;;;;;;5106850;27;20047;-70
2021/07/08 09:58:53;;;;;;;5.88;4.53;;;20.90;14.30;;;;;;5106508;27;20054;-70
2021/07/08 10:01:44;;;;;;;5.15;4.00;;;21.10;14.10;;;;;;5105491;27;20050;-70
2021/07/08 10:04:32;;;;;;;5.72;4.40;;;21.10;14.90;;;;;;5104540;27;20052;-69
2021/07/08 10:07:22;;;;;;;9.60;4.00;;;21.10;14.40;;;;;;5109715;27;20059;-70
2021/07/08 10:10:12;;;;;;;5.85;4.30;;;21.30;14.10;;;;;;5108314;27;20090;-69
2021/07/08 10:13:00;;;;;;;5.35;3.53;;;21.40;12.90;;;;;;5106650;27;20043;-69
2021/07/08 10:15:51;;;;;;;8.40;4.78;;;21.20;14.40;;;;;;5109952;27;20074;-70
2021/07/08 10:18:42;;;;;;;6.90;4.80;;;21.20;14.10;;;;;;5101731;27;20055;-69
2021/07/08 10:21:31;;;;;;;7.80;4.53;;;21.40;12.80;;;;;;5106298;27;20058;-70
2021/07/08 10:24:21;;;;;;;8.13;5.00;;;21.50;11.90;;;;;;5106508;27;20133;-69
2021/07/08 10:27:11;;;;;;;4.93;4.20;;;21.40;11.90;;;;;;5112784;27;20097;-69
2021/07/08 10:30:01;;;;;;;6.32;4.32;;;21.50;11.90;;;;;;5091360;27;20058;-71
2021/07/08 10:32:57;;;;;;;7.60;5.22;;;21.80;10.60;;;;;;5104072;27;20147;-69
2021/07/08 10:35:49;;;;;;;7.40;4.28;;;22.00;9.00;;;;;;5106878;28;20051;-71
2021/07/08 10:38:39;;;;;;;4.93;3.65;;;22.00;6.90;;;;;;5102903;27;20081;-70
2021/07/08 10:41:44;;;;;;;6.47;3.35;;;21.80;7.40;;;;;;5110334;27;20051;-69
2021/07/08 10:44:41;;;;;;;4.82;3.25;;;22.10;7.60;;;;;;5104685;28;20039;-70
2021/07/08 10:47:35;;;;;;;5.20;3.13;;;22.30;6.60;;;;;;5107315;27;20050;-71
2021/07/08 10:50:44;;;;;;;5.10;3.42;;;22.30;4.90;;;;;;5101993;28;20048;-68
2021/07/08 10:53:35;;;;;;;4.45;3.45;;;22.00;5.80;;;;;;5103652;28;20510;-69
2021/07/08 10:56:33;;;;;;;5.68;2.97;;;21.60;5.40;;;;;;5092679;28;20059;-69
2021/07/08 10:59:23;;;;;;;5.63;3.65;;;21.60;8.20;;;;;;5090561;28;20066;-69
2021/07/08 11:02:44;;;;;;;5.63;3.58;;;21.30;8.00;;;;;;5108479;28;20181;-70
2021/07/08 11:05:54;;;;;;;6.60;3.70;;;21.80;8.40;;;;;;5105731;28;20148;-69
2021/07/08 11:08:58;;;;;;;5.90;3.95;;;22.10;7.00;;;;;;5104476;28;20092;-69
2021/07/08 11:12:08;;;;;;;8.45;3.50;;;20.90;9.70;;;;;;5102229;28;20047;-70
2021/07/08 11:14:59;;;;;;;5.43;2.83;;;20.80;10.50;;;;;;5107843;28;20079;-68
2021/07/08 11:17:48;;;;;;;3.78;2.70;;;20.80;10.60;;;;;;5092204;28;20082;-70
2021/07/08 11:20:40;;;;;;;5.43;3.25;;;20.90;9.80;;;;;;5107799;28;20051;-70
2021/07/08 11:23:37;;;;;;;6.28;2.88;;;20.90;9.70;;;;;;5102146;28;20380;-68
2021/07/08 11:26:53;;;;;;;3.85;2.90;;;21.00;11.10;;;;;;5106842;28;20537;-70
2021/07/08 11:29:45;;;;;;;2.80;2.45;;;21.40;11.10;;;;;;5083371;28;20069;-68
2021/07/08 11:32:38;;;;;;;4.82;2.38;;;20.90;12.20;;;;;;5109151;28;20410;-69
2021/07/08 11:35:30;;;;;;;3.85;2.03;;;20.60;13.60;;;;;;5107372;28;20044;-69
2021/07/08 11:38:19;;;;;;;4.35;1.90;;;20.20;19.70;;;;;;5104959;28;20073;-69
2021/07/08 11:41:09;;;;;;;3.05;1.88;;;20.20;20.70;;;;;;5103850;28;20047;-69
2021/07/08 11:44:00;;;;;;;2.10;1.55;;;20.00;21.60;;;;;;5110410;28;20139;-70
2021/07/08 11:46:48;;;;;;;2.22;1.33;;;20.10;20.40;;;;;;5103835;28;20551;-70
2021/07/08 11:49:38;;;;;;;3.22;1.42;;;19.70;20.50;;;;;;5105871;27;20047;-69
2021/07/08 11:52:29;;;;;;;3.95;1.10;;;19.80;21.70;;;;;;5108010;27;20051;-70
2021/07/08 11:55:29;;;;;;;4.60;1.88;;;19.40;25.60;;;;;;5105275;27;20133;-69
2021/07/08 11:58:22;;;;;;;5.25;1.77;;;19.40;33.70;;;;;;5100015;27;20126;-69
2021/07/08 12:01:12;;;;;;;3.50;1.90;;;19.00;41.00;;;;;;5109930;27;20057;-69
2021/07/08 12:04:02;;;;;;;5.93;2.38;;;18.80;51.70;;;;;;5107429;27;20796;-71
2021/07/08 12:06:52;;;;;;;6.15;3.30;;;18.50;56.60;;;;;;5117743;27;20171;-71
2021/07/08 12:09:48;;;;;;;10.95;3.42;;;18.40;61.00;;;;;;5105886;27;20133;-70
2021/07/08 12:12:37;;;;;;;3.83;3.00;;;18.40;63.30;;;;;;5106474;27;20044;-72
2021/07/08 12:15:26;;;;;;;4.15;3.28;;;18.40;64.80;;;;;;5107634;27;20126;-70
2021/07/08 12:18:14;;;;;;;4.03;3.10;;;18.40;64.40;;;;;;5110782;27;20122;-70
2021/07/08 12:21:20;;;;;;;4.60;3.20;;;18.40;62.90;;;;;;5111906;27;20054;-71
2021/07/08 12:24:11;;;;;;;3.10;2.80;;;18.60;64.60;;;;;;5109292;27;20062;-69
2021/07/08 12:27:02;;;;;;;4.50;3.38;;;18.50;59.50;;;;;;5106875;27;20075;-71
2021/07/08 12:29:50;;;;;;;4.10;3.28;;;18.60;62.00;;;;;;5088171;27;20061;-70
2021/07/08 12:32:39;;;;;;;4.95;2.90;;;18.60;61.20;;;;;;5108252;27;20546;-68
2021/07/08 12:35:44;;;;;;;3.10;2.80;;;18.50;58.50;;;;;;5112703;27;20043;-70
2021/07/08 12:38:38;;;;;;;3.65;3.00;;;18.50;58.80;;;;;;5115064;27;20070;-70
2021/07/08 12:41:28;;;;;;;3.53;2.92;;;18.60;58.80;;;;;;5105823;27;20047;-71
2021/07/08 12:44:18;;;;;;;4.15;3.25;;;18.60;57.10;;;;;;5106100;27;20153;-70
2021/07/08 12:47:07;;;;;;;4.53;4.13;;;18.60;57.10;;;;;;5109571;27;20390;-69
2021/07/08 12:49:56;;;;;;;4.22;3.83;;;18.60;58.70;;;;;;5092255;27;20410;-71
2021/07/08 12:52:44;;;;;;;3.97;3.67;;;18.50;56.70;;;;;;5110904;27;20100;-70
2021/07/08 12:55:42;;;;;;;6.38;3.63;;;18.70;58.80;;;;;;5109256;27;20437;-71
2021/07/08 12:58:33;;;;;;;4.90;3.75;;;18.80;59.10;;;;;;5107040;27;20035;-70
2021/07/08 13:01:25;;;;;;;3.10;2.80;;;19.10;58.30;;;;;;5109382;27;20126;-71
2021/07/08 13:04:16;;;;;;;2.50;2.30;;;19.00;54.30;;;;;;5110208;27;20513;-71
2021/07/08 13:07:06;;;;;;;2.70;2.42;;;19.00;51.40;;;;;;5110478;27;20044;-71
2021/07/08 13:09:56;;;;;;;5.00;2.60;;;19.20;52.60;;;;;;5105749;27;20526;-70
2021/07/08 13:12:44;;;;;;;4.38;2.70;;;19.20;50.40;;;;;;5106923;27;20051;-71
2021/07/08 13:15:34;;;;;;;3.08;2.53;;;19.20;46.30;;;;;;5109237;27;20043;-72
2021/07/08 13:18:29;;;;;;;3.67;2.22;;;19.40;44.10;;;;;;5108047;27;20039;-73
2021/07/08 13:21:21;;;;;;;4.35;2.35;;;19.50;44.30;;;;;;5107954;27;20047;-73
2021/07/08 13:24:21;;;;;;;3.47;2.30;;;19.50;41.90;;;;;;5104939;27;20364;-73
2021/07/08 13:27:10;;;;;;;5.05;1.90;;;19.70;44.10;;;;;;5110820;27;20154;-72
2021/07/08 13:30:30;;;;;;;3.15;2.30;;;19.60;42.20;;;;;;5086469;27;20126;-73
2021/07/08 13:33:26;;;;;;;2.70;2.05;;;20.00;43.60;;;;;;5106041;27;20044;-73
2021/07/08 13:36:17;;;;;;;4.38;2.30;;;20.20;41.30;;;;;;5103746;27;20047;-73
2021/07/08 13:39:10;;;;;;;3.00;2.17;;;19.90;40.90;;;;;;5104866;27;20525;-74
2021/07/08 13:42:05;;;;;;;3.80;2.60;;;19.90;36.80;;;;;;5105351;27;20096;-75
2021/07/08 13:44:53;;;;;;;3.25;2.22;;;20.10;39.70;;;;;;5101763;27;20054;-72
2021/07/08 13:47:42;;;;;;;2.80;2.05;;;20.10;40.70;;;;;;5101063;27;20429;-72
2021/07/08 13:50:32;;;;;;;2.65;2.45;;;20.00;36.80;;;;;;5106464;27;20126;-71
2021/07/08 13:53:25;;;;;;;5.00;2.40;;;20.20;38.40;;;;;;5110492;27;20051;-72
2021/07/08 13:56:16;;;;;;;2.53;2.33;;;20.20;33.60;;;;;;5095564;27;20044;-73
2021/07/08 13:59:05;;;;;;;3.08;2.33;;;20.10;37.40;;;;;;5110536;27;20051;-73
2021/07/08 14:01:54;;;;;;;4.55;2.42;;;20.10;33.50;;;;;;5105835;27;20062;-75
2021/07/08 14:04:42;;;;;;;4.03;2.35;;;20.10;37.50;;;;;;5109642;27;20122;-74
2021/07/08 14:07:32;;;;;;;3.90;2.30;;;20.20;36.80;;;;;;5096430;27;20035;-74
2021/07/08 14:10:21;;;;;;;3.13;2.45;;;20.20;37.50;;;;;;5100709;27;20127;-74
2021/07/08 14:13:09;;;;;;;4.53;2.40;;;20.40;31.50;;;;;;5109099;27;20047;-74
2021/07/08 14:15:58;;;;;;;4.07;2.03;;;20.60;35.50;;;;;;5111155;27;20058;-74
2021/07/08 14:18:46;;;;;;;2.45;2.03;;;20.80;30.40;;;;;;5103585;27;20055;-74
2021/07/08 14:21:35;;;;;;;3.25;1.90;;;20.90;29.50;;;;;;5103766;28;20083;-74
2021/07/08 14:24:24;;;;;;;4.10;2.03;;;21.00;27.10;;;;;;5108471;27;20044;-74
2021/07/08 14:27:13;;;;;;;4.18;2.05;;;20.90;25.10;;;;;;5108656;27;20055;-73
2021/07/08 14:30:02;;;;;;;2.15;1.85;;;21.10;26.90;;;;;;5100875;27;20176;-72
2021/07/08 14:32:51;;;;;;;3.28;1.90;;;21.40;22.80;;;;;;5092148;28;20043;-73
2021/07/08 14:35:40;;;;;;;3.65;1.48;;;21.20;20.80;;;;;;5104936;27;20056;-76
2021/07/08 14:38:29;;;;;;;1.50;1.40;;;21.60;16.40;;;;;;5107828;27;20540;-74
2021/07/08 14:41:19;;;;;;;2.88;1.95;;;21.30;16.10;;;;;;5107677;27;20079;-76
2021/07/08 14:44:20;;;;;;;1.33;1.23;;;21.50;15.60;;;;;;5104294;28;20058;-74
2021/07/08 14:47:08;;;;;;;2.15;1.13;;;21.60;11.40;;;;;;5102941;28;20050;-74
2021/07/08 14:49:58;;;;;;;1.35;1.15;;;21.60;14.30;;;;;;5099876;28;20087;-75
2021/07/08 14:52:47;;;;;;;2.35;1.33;;;21.30;12.10;;;;;;5106728;28;20058;-74